This is the latest recevied weather packets stored in our database for station/object KK7KHO. If no packets are shown the sender has not sent any weather packets the latest 10 day(s).
| Time | Temp. | Humidity | Pressure | Rain* | Wind** | Luminosity | Snow |
|---|---|---|---|---|---|---|---|
| 1777833527 | 21.67° C | 60% | 1013 hPa | 0 mm | - | 640 W/m² | - |
| 1777833224 | 21.11° C | 60% | 1012.9 hPa | 0 mm | - | 638 W/m² | - |
| 1777832921 | 21.11° C | 61% | 1013.2 hPa | 0 mm | - | 637 W/m² | - |
| 1777832620 | 20.56° C | 62% | 1013.3 hPa | 0 mm | - | 638 W/m² | - |
| 1777832317 | 20° C | 64% | 1013.2 hPa | 0 mm | - | 526 W/m² | - |
| 1777832014 | 18.89° C | 67% | 1013.4 hPa | 0 mm | - | 393 W/m² | - |
| 1777831711 | 20° C | 64% | 1013.5 hPa | 0 mm | - | 350 W/m² | - |
| 1777831409 | 19.44° C | 68% | 1013.5 hPa | 0 mm | - | 335 W/m² | - |
| 1777831105 | 18.89° C | 67% | 1013.5 hPa | 0 mm | - | 377 W/m² | - |
| 1777830803 | 19.44° C | 67% | 1013.6 hPa | 0 mm | - | 336 W/m² | - |
| 1777830498 | 20° C | 65% | 1013.6 hPa | 0 mm | - | 429 W/m² | - |
| 1777830197 | 20° C | 63% | 1013.7 hPa | 0 mm | - | 482 W/m² | - |
| 1777829897 | 19.44° C | 66% | 1013.8 hPa | 0 mm | - | 466 W/m² | - |
| 1777829593 | 18.89° C | 66% | 1013.8 hPa | 0 mm | - | 518 W/m² | - |
| 1777829290 | 18.89° C | 67% | 1013.7 hPa | 0 mm | - | 397 W/m² | - |
| 1777828988 | 18.89° C | 67% | 1013.9 hPa | 0 mm | - | 410 W/m² | - |
| 1777828683 | 18.89° C | 68% | 1013.7 hPa | 0 mm | - | 385 W/m² | - |
| 1777828380 | 18.89° C | 69% | 1013.7 hPa | 0 mm | - | 344 W/m² | - |
| 1777828078 | 18.89° C | 66% | 1013.9 hPa | 0 mm | - | 382 W/m² | - |
| 1777827774 | 19.44° C | 66% | 1013.8 hPa | 0 mm | - | 419 W/m² | - |
| 1777827471 | 19.44° C | 68% | 1013.7 hPa | 0 mm | - | 411 W/m² | - |
| 1777827169 | 18.89° C | 69% | 1013.9 hPa | 0 mm | - | 403 W/m² | - |
| 1777826864 | 19.44° C | 70% | 1013.6 hPa | 0 mm | - | 438 W/m² | - |
| 1777826563 | 19.44° C | 68% | 1013.9 hPa | 0 mm | - | 431 W/m² | - |
| 1777826258 | 19.44° C | 71% | 1013.9 hPa | 0 mm | - | 428 W/m² | - |
* Rain latest hour (hover to see other rain measurements)
** Current wind speed in m/s (hover to see current wind gust speed)